Terminal Aerodrome Forecast
Issued by NWS Sioux Falls, SD

Home | Current Version | Previous Version | Graphics & Text | Print | Product List | Glossary On
Versions: 1 2 3 4 5 6 7 8 9 10 11 12 13 14
704
FTUS43 KFSD 121725
TAFFSD
TAF
KFSD 121725Z 1218/1318 24008KT P6SM FEW040 SCT080
     FM122100 23009KT P6SM FEW200
     FM130500 27006KT P6SM SCT200 WS020/30040KT
     FM131000 31015KT P6SM BKN070
     FM131500 33021G30KT P6SM BKN025=

USA.gov is the U.S. government's official web portal to all federal, state and local government web resources and services.